Saunders, Virginia
Current Conditions -  °F | °C
As of 8:54 AM on Monday 24 Nov 2014 (Local Time) from KRIC Reporting Station
Scattered Clouds Scattered Clouds  
Wind Chill: 67°   Ceiling: Unl
Heat Index: 67°   Visibility: 10mi
Dew Point: 59°   Wind: 17mph
Humidity: 76%   Direction: 210°SSW
Pressure: 29.76"   Gusts: NA
Location:  37.5498°N, 77.4598°W
Report Text: KRIC 241354Z 21015KT 10SM SCT022 19/15 A2976 RMK AO2 PK WND 20026/1329 SLP083 T01940150
Loading
Personal Weather Stations






























Interactive Weather Map New forecast layout! Learn more

10-Day Weather Forecast

Advertisements
Track Severe Weather on mobile